Time;durP1;ratioP1;P1;durP2;ratioP2;P2;SDS_P1;SDS_P2;PMS_P1;PMS_P2;Temp;Humidity;BMP_temperature;BMP_pressure;BME280_temperature;BME280_humidity;BME280_pressure;Samples;Min_cycle;Max_cycle;Signal;HPM_P1;HPM_P2
2021/05/06 00:32:57;;;;;;;4.33;1.70;;;;;;;16.65;43.89;94630.59;5071035;28;20495;-66
2021/05/06 00:35:29;;;;;;;5.23;1.90;;;;;;;16.71;43.92;94631.28;5070729;28;21063;-66
2021/05/06 01:07:25;;;;;;;5.13;1.80;;;;;;;16.11;44.21;94660.53;5070184;28;20517;-65
2021/05/06 01:12:24;;;;;;;4.90;2.37;;;;;;;16.25;44.18;94649.97;5069833;28;20457;-66
2021/05/06 01:14:51;;;;;;;3.87;1.70;;;;;;;16.26;44.29;94651.50;5052454;28;20450;-66
2021/05/06 01:17:36;;;;;;;5.00;2.00;;;;;;;16.47;44.19;94663.28;5052179;28;20513;-63
2021/05/06 01:20:05;;;;;;;11.20;2.17;;;;;;;16.48;44.08;94664.81;5070133;28;20499;-63
2021/05/06 01:22:32;;;;;;;4.27;2.07;;;;;;;16.54;43.69;94668.94;5071367;28;20448;-66
2021/05/06 01:25:00;;;;;;;3.97;1.93;;;;;;;16.53;43.77;94672.66;5054764;28;20584;-65
2021/05/06 01:27:39;;;;;;;5.60;2.20;;;;;;;16.48;44.12;94670.13;5053525;28;20442;-66
2021/05/06 01:33:00;;;;;;;5.27;2.37;;;;;;;16.15;44.58;94669.44;5074181;28;20450;-65
2021/05/06 01:36:03;;;;;;;6.20;1.90;;;;;;;16.36;44.40;94667.19;5052635;28;20446;-64
2021/05/06 01:38:46;;;;;;;5.87;1.90;;;;;;;16.34;44.49;94665.91;5068935;28;20445;-65
2021/05/06 01:59:51;;;;;;;5.07;1.73;;;;;;;15.53;46.12;94690.47;5055908;28;20519;-65
2021/05/06 02:02:18;;;;;;;5.53;1.77;;;;;;;15.39;46.94;94700.16;5055475;28;20450;-66
2021/05/06 02:04:45;;;;;;;3.13;1.80;;;;;;;15.21;47.19;94699.13;5074454;28;20869;-65
2021/05/06 02:07:13;;;;;;;6.17;2.37;;;;;;;15.17;47.34;94696.28;5056211;28;20442;-65
2021/05/06 02:09:49;;;;;;;6.67;2.27;;;;;;;15.00;47.97;94693.38;5055880;28;20573;-64
2021/05/06 02:12:19;;;;;;;34.03;18.10;;;;;;;15.22;48.22;94690.91;5055278;28;20523;-63
2021/05/06 02:14:56;;;;;;;88.13;42.00;;;;;;;14.87;48.14;94688.81;5055795;28;20457;-64
2021/05/06 02:17:22;;;;;;;75.33;38.23;;;;;;;15.06;47.68;94702.00;5073166;28;20499;-64
2021/05/06 02:19:52;;;;;;;51.00;25.20;;;;;;;14.91;48.27;94705.66;5055240;28;20998;-64
2021/05/06 02:22:20;;;;;;;27.27;16.37;;;;;;;14.50;49.78;94702.03;5073645;28;20464;-63
2021/05/06 02:24:50;;;;;;;7.90;3.40;;;;;;;14.56;50.04;94703.50;5074273;28;20441;-64
2021/05/06 02:27:16;;;;;;;5.03;2.63;;;;;;;14.48;50.80;94701.53;5073229;28;20481;-66
2021/05/06 02:29:44;;;;;;;5.33;3.17;;;;;;;14.32;50.25;94715.16;5073675;28;20481;-64
2021/05/06 02:32:10;;;;;;;9.67;3.50;;;;;;;14.03;51.41;94715.22;5072636;28;20868;-66
2021/05/06 02:34:37;;;;;;;6.13;2.60;;;;;;;14.02;51.15;94708.38;5073980;28;20465;-65
2021/05/06 02:37:03;;;;;;;9.73;2.90;;;;;;;14.10;51.82;94720.94;5072800;28;20482;-64
2021/05/06 02:39:30;;;;;;;12.60;4.87;;;;;;;14.28;51.35;94722.84;5073144;28;20442;-65
2021/05/06 02:41:57;;;;;;;13.73;6.07;;;;;;;14.41;51.31;94722.19;5072769;28;20436;-65
2021/05/06 02:44:23;;;;;;;10.57;4.80;;;;;;;14.65;50.45;94728.16;5073148;28;20453;-65
2021/05/06 02:46:50;;;;;;;32.60;13.83;;;;;;;14.63;50.04;94725.06;5072672;28;20450;-65
2021/05/06 02:49:16;;;;;;;17.63;8.03;;;;;;;14.60;50.33;94725.59;5074992;28;20477;-68
2021/05/06 02:51:48;;;;;;;16.83;7.80;;;;;;;14.68;50.25;94727.63;5074503;28;20450;-63
2021/05/06 02:54:15;;;;;;;18.47;7.70;;;;;;;14.83;50.41;94722.13;5073749;28;20419;-65
2021/05/06 02:56:58;;;;;;;11.70;5.73;;;;;;;14.88;49.75;94726.53;5075604;28;20434;-64
2021/05/06 03:04:44;;;;;;;13.70;5.87;;;;;;;14.70;51.22;94727.34;5072851;28;20429;-64
2021/05/06 03:07:12;;;;;;;8.80;3.33;;;;;;;14.65;50.24;94728.16;5072017;28;20448;-64
2021/05/06 03:22:52;;;;;;;8.77;3.00;;;;;;;14.65;50.76;94744.00;5072110;28;20450;-63
2021/05/06 03:25:20;;;;;;;7.93;2.77;;;;;;;14.61;50.32;94756.19;5072820;28;20448;-62
2021/05/06 04:22:11;;;;;;;5.50;3.07;;;;;;;14.81;51.04;94832.44;5072366;28;20442;-64
2021/05/06 04:27:25;;;;;;;6.17;2.87;;;;;;;14.84;52.13;94842.41;5070416;28;20448;-66
2021/05/06 04:37:46;;;;;;;15.70;5.57;;;;;;;15.48;51.31;94862.97;5070298;28;20815;-63
2021/05/06 05:06:39;;;;;;;6.60;4.40;;;;;;;16.03;50.29;94880.59;5070586;28;20813;-63
2021/05/06 05:28:01;;;;;;;13.20;4.40;;;;;;;16.18;47.96;94898.06;5066480;28;20466;-66
2021/05/06 05:30:29;;;;;;;8.67;4.40;;;;;;;16.20;48.20;94901.22;5069404;28;20438;-66
2021/05/06 05:33:09;;;;;;;10.07;4.50;;;;;;;16.41;46.65;94901.63;5067016;28;20528;-64
2021/05/06 05:35:43;;;;;;;12.00;4.90;;;;;;;16.49;47.53;94903.66;5066373;28;20438;-63
2021/05/06 05:54:41;;;;;;;6.30;3.10;;;;;;;16.96;44.80;94909.38;5066900;28;20434;-64
2021/05/06 05:57:11;;;;;;;7.57;3.20;;;;;;;16.84;46.96;94922.31;5067106;28;20439;-65
2021/05/06 05:59:38;;;;;;;6.70;3.80;;;;;;;16.89;46.01;94922.22;5068461;28;20907;-66
2021/05/06 06:02:05;;;;;;;9.63;3.60;;;;;;;17.13;46.52;94929.97;5068133;28;20445;-66
2021/05/06 06:04:32;;;;;;;7.20;3.40;;;;;;;17.31;46.31;94925.63;5068083;28;20434;-64
2021/05/06 06:06:58;;;;;;;15.83;4.03;;;;;;;17.40;46.30;94934.47;5067315;28;20442;-64
2021/05/06 06:09:24;;;;;;;7.77;3.20;;;;;;;17.42;45.68;94937.59;5067757;28;20470;-65
2021/05/06 06:11:51;;;;;;;6.27;2.37;;;;;;;17.50;43.85;94924.47;5068097;28;20797;-65
2021/05/06 06:14:28;;;;;;;7.33;2.23;;;;;;;17.69;43.67;94924.31;5067863;28;20568;-66
2021/05/06 06:16:55;;;;;;;7.03;2.27;;;;;;;17.57;43.15;94905.53;5066715;28;20792;-66
2021/05/06 06:19:29;;;;;;;7.23;1.83;;;;;;;17.59;42.04;94921.91;5069285;28;20462;-65
2021/05/06 06:22:02;;;;;;;8.33;2.00;;;;;;;17.80;44.14;94937.06;5068786;28;21252;-63
2021/05/06 06:24:28;;;;;;;7.33;2.50;;;;;;;18.00;42.80;94949.88;5048832;28;20516;-66
2021/05/06 06:26:55;;;;;;;5.43;2.03;;;;;;;18.15;43.39;94954.03;5067466;28;20487;-66
2021/05/06 06:29:27;;;;;;;7.87;2.43;;;;;;;18.30;42.68;94959.00;5068142;28;20566;-63
2021/05/06 06:31:54;;;;;;;3.93;2.00;;;;;;;17.92;43.28;94963.03;5067839;28;20444;-65
2021/05/06 06:34:21;;;;;;;7.63;2.53;;;;;;;17.79;42.17;94959.34;5074448;28;20815;-63
2021/05/06 06:36:47;;;;;;;5.80;2.07;;;;;;;17.64;43.05;94953.59;5070293;28;20452;-66
2021/05/06 06:39:16;;;;;;;36.53;27.90;;;;;;;18.12;42.76;94965.22;5071625;28;20437;-65
2021/05/06 06:41:44;;;;;;;34.60;30.13;;;;;;;17.81;42.17;94948.47;5072509;28;20989;-65
2021/05/06 06:44:12;;;;;;;10.83;3.20;;;;;;;18.12;43.31;94965.22;5070916;28;20434;-65
2021/05/06 06:46:39;;;;;;;8.97;3.30;;;;;;;18.22;43.57;94954.41;5070049;28;20437;-65
2021/05/06 06:49:06;;;;;;;14.00;7.93;;;;;;;18.40;42.20;94948.13;5073229;28;21028;-65
2021/05/06 06:51:32;;;;;;;15.80;10.17;;;;;;;18.50;42.09;94963.84;5072976;28;20430;-67
2021/05/06 06:53:59;;;;;;;4.33;2.23;;;;;;;18.36;41.47;94967.59;5072248;28;20434;-67
2021/05/06 06:56:25;;;;;;;6.33;2.13;;;;;;;18.31;40.37;94957.88;5072510;28;20958;-64
2021/05/06 06:58:53;;;;;;;9.20;3.33;;;;;;;18.54;42.05;94959.47;5071931;28;20473;-65
2021/05/06 07:01:20;;;;;;;6.30;1.97;;;;;;;18.38;39.97;94962.75;5069836;28;20993;-66
2021/05/06 07:03:46;;;;;;;4.87;2.27;;;;;;;18.52;41.02;94966.94;5072625;28;20541;-71
2021/05/06 07:06:13;;;;;;;6.00;2.43;;;;;;;18.85;39.23;94960.28;5073980;28;20485;-68
2021/05/06 07:08:46;;;;;;;6.10;2.20;;;;;;;18.38;40.07;94974.16;5072422;28;20524;-64
2021/05/06 07:11:12;;;;;;;4.67;2.27;;;;;;;18.61;41.06;94964.38;5072879;28;20452;-65
2021/05/06 07:13:38;;;;;;;7.17;1.90;;;;;;;18.71;39.76;94967.53;5072017;28;20437;-66
2021/05/06 07:16:07;;;;;;;8.13;2.20;;;;;;;18.40;40.78;94974.66;5072432;28;20430;-64
2021/05/06 07:18:35;;;;;;;45.10;33.40;;;;;;;18.80;41.74;94965.72;5071991;28;20846;-65
2021/05/06 07:21:05;;;;;;;25.20;17.43;;;;;;;18.90;40.25;94968.09;5071559;28;20470;-67
2021/05/06 07:23:32;;;;;;;7.53;3.10;;;;;;;18.92;39.31;94979.19;5071746;28;20422;-67
2021/05/06 07:26:03;;;;;;;6.67;2.27;;;;;;;19.11;38.48;94973.66;5071568;28;20427;-65
2021/05/06 07:28:41;;;;;;;4.77;2.20;;;;;;;18.90;39.35;94984.03;5071561;28;20851;-68
2021/05/06 07:31:12;;;;;;;7.87;5.80;;;;;;;18.85;39.20;94978.84;5072470;28;20456;-68
2021/05/06 07:33:45;;;;;;;72.63;64.70;;;;;;;19.21;39.18;94984.03;5071921;28;20466;-64
2021/05/06 07:36:18;;;;;;;7.37;2.83;;;;;;;19.18;38.97;94984.63;5071872;28;20442;-67
2021/05/06 07:38:47;;;;;;;7.03;2.70;;;;;;;19.49;39.67;94984.63;5071617;28;20529;-67
2021/05/06 07:41:18;;;;;;;8.77;2.97;;;;;;;19.34;39.91;94983.19;5071652;28;20438;-68
2021/05/06 07:43:47;;;;;;;6.40;2.70;;;;;;;19.29;39.19;94979.84;5071470;28;20868;-66
2021/05/06 07:46:18;;;;;;;10.50;3.20;;;;;;;19.37;39.02;94976.44;5072133;28;20450;-67
2021/05/06 07:48:53;;;;;;;33.10;19.70;;;;;;;19.49;39.08;94968.69;5070847;28;20508;-65
2021/05/06 07:51:25;;;;;;;22.57;17.73;;;;;;;19.56;40.68;94969.03;5071880;28;20441;-66
2021/05/06 07:53:56;;;;;;;5.83;3.13;;;;;;;19.60;40.76;94969.94;5071263;28;20426;-66
2021/05/06 07:56:27;;;;;;;5.70;2.60;;;;;;;19.74;39.74;94965.28;5072082;28;20249;-67
2021/05/06 07:58:53;;;;;;;10.37;2.60;;;;;;;19.45;39.75;94967.75;5071247;28;20437;-66
2021/05/06 08:01:20;;;;;;;8.73;2.83;;;;;;;19.40;40.05;94967.84;5071597;28;20649;-65
2021/05/06 08:03:47;;;;;;;6.63;2.70;;;;;;;19.53;40.17;94958.97;5071196;28;20573;-65
2021/05/06 08:06:20;;;;;;;6.97;2.70;;;;;;;19.39;39.61;94958.34;5071239;28;20438;-66
2021/05/06 08:08:47;;;;;;;7.07;2.70;;;;;;;19.63;40.76;94958.72;5070435;28;21015;-66
2021/05/06 08:11:13;;;;;;;9.77;2.60;;;;;;;20.00;40.17;94964.22;5071456;28;20517;-68
2021/05/06 08:13:40;;;;;;;6.20;2.37;;;;;;;20.13;39.97;94959.84;5070958;28;20445;-68
2021/05/06 08:16:07;;;;;;;5.40;2.77;;;;;;;20.06;39.50;94967.50;5071146;28;20446;-68
2021/05/06 08:18:33;;;;;;;3.90;2.17;;;;;;;19.67;38.68;94949.78;5070692;28;20191;-69
2021/05/06 08:21:00;;;;;;;5.10;2.30;;;;;;;19.50;39.45;94964.94;5070877;28;20278;-66
2021/05/06 08:23:26;;;;;;;19.17;16.03;;;;;;;19.98;39.51;94960.31;5070969;28;20200;-66
2021/05/06 08:25:53;;;;;;;21.93;18.23;;;;;;;19.72;39.10;94956.84;5070930;28;20427;-68
2021/05/06 08:28:37;;;;;;;5.67;2.30;;;;;;;19.84;38.93;94959.66;5070791;28;20280;-66
2021/05/06 08:31:04;;;;;;;7.43;3.40;;;;;;;19.96;38.41;94965.16;5073364;28;20190;-68
2021/05/06 08:33:31;;;;;;;12.37;3.17;;;;;;;20.48;39.17;94961.44;5070733;28;20279;-68
2021/05/06 08:35:58;;;;;;;3.23;2.40;;;;;;;19.92;38.15;94977.53;5071032;28;20184;-66
2021/05/06 08:38:24;;;;;;;5.67;2.47;;;;;;;20.19;39.08;94961.28;5053762;28;20203;-67
2021/05/06 08:40:51;;;;;;;8.23;2.70;;;;;;;20.31;39.43;94966.75;5069336;28;20259;-66
2021/05/06 08:43:19;;;;;;;8.27;2.60;;;;;;;20.61;38.36;94965.78;5067688;28;20678;-67
2021/05/06 08:45:48;;;;;;;5.17;2.20;;;;;;;20.49;37.77;94962.97;5067838;28;20231;-68
2021/05/06 08:48:16;;;;;;;3.63;2.27;;;;;;;20.73;37.42;94960.59;5067865;28;20180;-66
2021/05/06 08:50:45;;;;;;;4.03;2.20;;;;;;;20.84;38.18;94959.16;5068156;28;20252;-70
2021/05/06 08:53:13;;;;;;;4.07;2.27;;;;;;;21.29;36.82;94964.03;5069204;28;20269;-64
2021/05/06 08:55:44;;;;;;;6.37;2.30;;;;;;;21.11;36.42;94966.78;5070205;28;20200;-69
2021/05/06 08:58:13;;;;;;;4.80;2.20;;;;;;;21.43;35.72;94972.59;5069879;28;20614;-66
2021/05/06 09:00:39;;;;;;;4.33;2.20;;;;;;;21.36;35.12;94972.31;5069594;28;20208;-66
2021/05/06 09:03:06;;;;;;;4.17;2.60;;;;;;;21.31;36.89;94970.63;5069983;28;20192;-68
2021/05/06 09:05:36;;;;;;;3.70;1.80;;;;;;;21.13;34.63;94979.78;5070785;28;20206;-65
2021/05/06 09:08:03;;;;;;;4.70;2.00;;;;;;;20.95;34.71;94962.25;5070144;28;20666;-68
2021/05/06 09:10:48;;;;;;;5.40;2.00;;;;;;;21.08;34.75;94983.41;5052615;28;20235;-65
2021/05/06 09:13:28;;;;;;;3.07;2.17;;;;;;;21.36;33.82;94972.31;5069995;28;20282;-66
2021/05/06 09:15:55;;;;;;;5.60;1.90;;;;;;;21.35;34.54;94973.44;5069993;28;20669;-68
2021/05/06 09:18:37;;;;;;;5.30;2.20;;;;;;;21.20;34.11;94973.97;5069630;28;20196;-69
2021/05/06 09:21:06;;;;;;;4.17;1.80;;;;;;;21.18;32.85;94969.72;5066833;28;20187;-66
2021/05/06 09:23:33;;;;;;;3.40;2.07;;;;;;;21.54;32.58;94960.47;5068169;28;20204;-66
2021/05/06 09:26:05;;;;;;;4.03;1.63;;;;;;;21.69;32.16;94954.59;5068308;28;20200;-70
2021/05/06 09:28:34;;;;;;;4.87;1.50;;;;;;;21.65;31.37;94969.66;5068390;28;20307;-66
2021/05/06 09:31:06;;;;;;;6.10;3.20;;;;;;;21.49;31.16;94966.00;5066157;28;20298;-67
2021/05/06 09:33:41;;;;;;;3.30;1.90;;;;;;;20.95;31.81;94968.38;5067452;28;20569;-67
2021/05/06 09:36:15;;;;;;;5.43;1.93;;;;;;;21.34;33.88;94971.84;5068599;28;20194;-66
2021/05/06 09:38:52;;;;;;;6.83;4.07;;;;;;;21.75;33.15;94970.06;5031706;28;20219;-68
2021/05/06 09:41:24;;;;;;;8.97;6.70;;;;;;;21.96;31.98;94970.13;5065561;28;20192;-67
2021/05/06 09:43:52;;;;;;;9.43;4.67;;;;;;;22.16;31.63;94966.69;5050553;28;20604;-67
2021/05/06 09:46:43;;;;;;;6.13;4.07;;;;;;;22.19;30.81;94963.34;5069721;28;20270;-68
2021/05/06 09:49:12;;;;;;;5.30;4.50;;;;;;;22.43;30.79;94968.03;5069338;28;20200;-67
2021/05/06 09:51:40;;;;;;;7.97;5.27;;;;;;;22.58;31.03;94954.88;5068911;28;20203;-63
2021/05/06 09:54:10;;;;;;;8.60;2.60;;;;;;;22.79;31.67;94950.25;5071688;28;20207;-61
2021/05/06 09:56:38;;;;;;;6.87;2.80;;;;;;;22.59;29.05;94963.69;5068931;28;20678;-65
2021/05/06 09:59:06;;;;;;;6.07;1.97;;;;;;;22.15;30.92;94959.81;5068049;28;20199;-67
2021/05/06 10:01:41;;;;;;;9.00;1.77;;;;;;;22.45;30.56;94960.47;5065771;28;20190;-68
2021/05/06 10:04:18;;;;;;;14.03;10.90;;;;;;;22.49;31.26;94967.50;5067527;28;20195;-68
2021/05/06 10:07:09;;;;;;;35.57;31.73;;;;;;;22.84;30.60;94968.78;5068277;28;20662;-64
2021/05/06 10:10:10;;;;;;;4.23;3.17;;;;;;;22.58;30.91;94960.22;5066452;28;20238;-65
2021/05/06 10:12:38;;;;;;;5.50;2.70;;;;;;;22.80;31.32;94954.50;5038990;28;20290;-65
2021/05/06 10:15:07;;;;;;;4.57;2.33;;;;;;;23.21;31.16;94950.88;5071967;28;20188;-65
2021/05/06 10:17:36;;;;;;;6.40;2.03;;;;;;;22.97;30.80;94945.53;5066102;28;20188;-65
2021/05/06 10:20:04;;;;;;;5.00;1.93;;;;;;;23.42;30.36;94940.13;5073626;28;20207;-65
2021/05/06 10:22:31;;;;;;;3.73;1.80;;;;;;;23.22;29.98;94957.03;5073314;28;20206;-67
2021/05/06 10:25:06;;;;;;;13.40;7.60;;;;;;;23.43;30.52;94953.16;5073450;28;20192;-65
2021/05/06 10:27:34;;;;;;;14.33;7.57;;;;;;;23.23;29.56;94953.25;5072448;28;20261;-65
2021/05/06 10:30:02;;;;;;;11.07;8.20;;;;;;;23.43;29.20;94952.41;5073253;28;20234;-65
2021/05/06 10:32:32;;;;;;;6.73;4.67;;;;;;;23.12;30.34;94969.72;5073142;28;20192;-63
2021/05/06 10:35:07;;;;;;;26.93;21.00;;;;;;;23.09;30.53;94962.38;5074220;28;20196;-65
2021/05/06 10:37:36;;;;;;;10.43;5.17;;;;;;;23.08;29.45;94962.69;5072887;28;20203;-65
2021/05/06 10:40:23;;;;;;;4.40;2.87;;;;;;;23.39;29.54;94967.53;5055330;28;20656;-66
2021/05/06 10:42:54;;;;;;;6.43;3.33;;;;;;;23.76;29.54;94950.34;5072867;28;20195;-66
2021/05/06 10:45:24;;;;;;;3.07;1.97;;;;;;;23.99;28.90;94957.59;5069238;28;20203;-66
2021/05/06 10:47:53;;;;;;;4.37;1.70;;;;;;;23.81;27.65;94952.81;5072966;28;20192;-67
2021/05/06 10:50:24;;;;;;;3.00;1.77;;;;;;;23.74;28.15;94969.41;5053685;28;20228;-67
2021/05/06 10:52:54;;;;;;;3.77;1.57;;;;;;;23.27;28.56;94970.16;5053056;28;20271;-65
2021/05/06 10:55:56;;;;;;;2.67;1.47;;;;;;;23.48;28.61;94960.19;5053472;28;20685;-67
2021/05/06 10:58:29;;;;;;;3.10;1.60;;;;;;;23.47;28.37;94974.66;5053215;28;20200;-65
2021/05/06 11:01:10;;;;;;;7.53;2.10;;;;;;;23.13;28.81;94955.25;5052831;28;20202;-64
2021/05/06 11:03:37;;;;;;;2.83;1.33;;;;;;;23.23;28.88;94969.28;5052983;28;20698;-66
2021/05/06 11:06:05;;;;;;;3.00;1.53;;;;;;;23.61;28.44;94970.53;5052901;28;20197;-67
2021/05/06 11:08:32;;;;;;;7.50;1.70;;;;;;;23.47;28.80;94975.44;5052099;28;20200;-66
2021/05/06 11:10:59;;;;;;;22.60;15.97;;;;;;;23.14;28.22;94975.50;5036807;28;20553;-64
2021/05/06 11:13:26;;;;;;;4.20;2.70;;;;;;;22.73;29.92;94980.19;5071503;28;20195;-63
2021/05/06 11:16:15;;;;;;;4.70;2.67;;;;;;;22.89;28.93;94987.25;5071202;28;20324;-65
2021/05/06 11:18:43;;;;;;;4.10;1.70;;;;;;;23.43;29.34;94979.91;5055596;28;20217;-66
2021/05/06 11:21:30;;;;;;;7.13;1.80;;;;;;;23.22;28.49;94989.09;5069196;28;20681;-63
2021/05/06 11:24:25;;;;;;;3.60;1.50;;;;;;;23.27;28.69;94983.53;5068617;28;20203;-64
2021/05/06 11:27:23;;;;;;;4.30;1.60;;;;;;;22.85;28.93;94986.34;5070360;28;20207;-65
2021/05/06 11:29:52;;;;;;;5.73;2.83;;;;;;;22.86;29.09;94977.22;5069427;28;20220;-63
2021/05/06 11:32:35;;;;;;;3.60;1.40;;;;;;;22.86;28.82;94971.88;5071270;28;20191;-65
2021/05/06 11:35:03;;;;;;;5.50;1.43;;;;;;;23.01;29.34;94978.47;5070582;28;20691;-65
2021/05/06 11:37:30;;;;;;;2.77;1.70;;;;;;;22.98;29.08;94966.56;5071035;28;20203;-65
2021/05/06 11:39:58;;;;;;;5.53;1.67;;;;;;;23.40;28.87;94953.06;5071159;28;20745;-66
2021/05/06 11:42:27;;;;;;;6.77;2.37;;;;;;;23.75;30.60;94959.50;5069002;28;20195;-67
2021/05/06 11:45:20;;;;;;;4.23;1.67;;;;;;;23.83;28.52;94955.94;5071232;28;20665;-65
2021/05/06 11:47:47;;;;;;;3.47;1.60;;;;;;;23.96;27.90;94957.47;5068581;28;20199;-64
2021/05/06 11:50:35;;;;;;;4.07;1.50;;;;;;;24.15;28.84;94946.97;5070663;28;20215;-66
2021/05/06 11:53:03;;;;;;;4.13;1.60;;;;;;;24.26;27.30;94950.72;5070400;28;20661;-64
2021/05/06 11:55:34;;;;;;;3.20;1.40;;;;;;;23.70;27.95;94949.03;5070623;28;20196;-67
2021/05/06 11:58:01;;;;;;;7.53;1.70;;;;;;;24.03;29.49;94933.63;5070469;28;20551;-69
2021/05/06 12:00:29;;;;;;;5.07;1.90;;;;;;;24.73;27.90;94940.97;5070406;28;20215;-65
2021/05/06 12:03:04;;;;;;;4.80;1.57;;;;;;;24.67;28.10;94950.34;5070765;28;20208;-63
2021/05/06 12:05:49;;;;;;;7.57;1.50;;;;;;;24.30;27.42;94946.25;5069194;28;20195;-65
2021/05/06 12:08:16;;;;;;;12.57;8.93;;;;;;;23.86;27.49;94939.19;5069687;28;20225;-66
2021/05/06 12:10:43;;;;;;;23.43;21.13;;;;;;;24.56;27.27;94943.16;5052352;28;20369;-63
2021/05/06 12:13:10;;;;;;;3.93;2.13;;;;;;;24.59;26.42;94935.22;5070837;28;20261;-64
2021/05/06 12:15:36;;;;;;;3.73;1.77;;;;;;;24.58;26.69;94944.34;5070524;28;20557;-63
2021/05/06 12:18:22;;;;;;;4.47;1.40;;;;;;;24.45;27.29;94928.69;5068300;28;20208;-65
2021/05/06 12:20:57;;;;;;;3.67;2.10;;;;;;;25.02;27.55;94927.16;5068607;28;20619;-63
2021/05/06 12:23:25;;;;;;;2.77;1.83;;;;;;;25.28;26.23;94920.50;5070337;28;20736;-64
2021/05/06 12:25:52;;;;;;;7.60;1.70;;;;;;;25.09;26.37;94935.38;5070819;28;20200;-64
2021/05/06 12:28:19;;;;;;;2.40;1.30;;;;;;;25.02;26.21;94932.53;5070117;28;20198;-64
2021/05/06 12:30:46;;;;;;;2.60;1.60;;;;;;;24.87;26.04;94924.47;5070154;28;20212;-64
2021/05/06 12:33:12;;;;;;;3.93;1.60;;;;;;;24.86;27.02;94929.06;5069962;28;20188;-64
2021/05/06 12:35:50;;;;;;;4.93;1.60;;;;;;;25.21;26.89;94931.84;5069844;28;20606;-64
2021/05/06 12:38:29;;;;;;;2.40;1.17;;;;;;;24.93;26.56;94923.88;5069255;28;20202;-66
2021/05/06 12:40:57;;;;;;;5.40;1.40;;;;;;;25.22;26.15;94921.91;5052278;28;20195;-64
2021/05/06 12:43:34;;;;;;;2.87;1.80;;;;;;;25.32;26.35;94926.72;5070583;28;20184;-64
2021/05/06 12:46:09;;;;;;;3.53;1.53;;;;;;;25.70;25.85;94918.84;5069112;28;20286;-65
2021/05/06 12:48:45;;;;;;;2.90;1.37;;;;;;;25.79;26.36;94920.19;5068157;28;20252;-65
2021/05/06 12:51:14;;;;;;;3.13;1.63;;;;;;;25.82;25.75;94916.06;5067640;28;20286;-65
2021/05/06 12:54:00;;;;;;;4.13;1.80;;;;;;;25.85;26.23;94915.34;5069861;28;20196;-65
2021/05/06 12:56:29;;;;;;;2.97;1.43;;;;;;;26.22;25.77;94902.34;5069809;28;20681;-68
2021/05/06 12:58:56;;;;;;;4.20;1.70;;;;;;;26.67;25.78;94908.59;5070062;28;20661;-63
2021/05/06 13:01:31;;;;;;;3.93;1.40;;;;;;;26.78;24.56;94908.81;5069970;28;20187;-66
2021/05/06 13:04:00;;;;;;;6.63;1.63;;;;;;;26.14;24.49;94912.16;5067986;28;20943;-65
2021/05/06 13:06:32;;;;;;;5.40;1.60;;;;;;;26.61;25.21;94907.31;5069218;28;20657;-67
2021/05/06 13:08:59;;;;;;;3.93;1.50;;;;;;;26.65;24.79;94905.47;5069076;28;20867;-66
2021/05/06 13:11:28;;;;;;;2.07;1.07;;;;;;;26.33;23.94;94914.81;5067465;28;20719;-65
2021/05/06 13:13:56;;;;;;;2.90;1.10;;;;;;;26.47;24.51;94908.97;5068044;28;20607;-65
2021/05/06 13:16:36;;;;;;;3.70;1.23;;;;;;;26.82;24.07;94910.41;5069522;28;20257;-63
2021/05/06 13:19:05;;;;;;;2.67;1.20;;;;;;;26.51;23.43;94910.59;5069264;28;20279;-64
2021/05/06 13:21:33;;;;;;;4.67;1.60;;;;;;;26.86;23.75;94908.56;5067860;28;20188;-63
2021/05/06 13:24:02;;;;;;;8.93;1.50;;;;;;;26.66;24.19;94890.13;5069385;28;20544;-65
2021/05/06 13:26:36;;;;;;;4.23;1.20;;;;;;;26.94;24.07;94910.25;5069829;28;20193;-66
2021/05/06 13:29:09;;;;;;;5.13;1.60;;;;;;;26.54;23.67;94899.13;5069555;28;20215;-65
2021/05/06 13:31:37;;;;;;;4.60;1.23;;;;;;;26.58;23.14;94885.75;5049536;28;20189;-64
2021/05/06 13:34:24;;;;;;;7.87;1.63;;;;;;;25.83;22.99;94902.28;5069523;28;20214;-64
2021/05/06 13:37:00;;;;;;;5.27;1.30;;;;;;;26.23;22.55;94888.53;5067086;28;20289;-65
2021/05/06 13:39:26;;;;;;;2.63;1.10;;;;;;;26.30;22.83;94899.44;5069531;28;20201;-66
2021/05/06 13:41:53;;;;;;;3.50;1.40;;;;;;;25.87;23.24;94891.59;5069187;28;20184;-66
2021/05/06 13:44:24;;;;;;;6.90;1.40;;;;;;;25.91;23.96;94895.91;5068970;28;20190;-66
2021/05/06 13:46:56;;;;;;;5.70;1.17;;;;;;;26.14;22.95;94887.97;5069196;28;20295;-65
2021/05/06 13:49:29;;;;;;;4.17;1.30;;;;;;;26.57;22.72;94887.66;5073078;28;20239;-64
2021/05/06 13:51:57;;;;;;;5.63;1.40;;;;;;;26.92;22.46;94882.94;5071836;28;20288;-66
2021/05/06 13:54:27;;;;;;;1.70;1.00;;;;;;;27.36;22.49;94879.81;5073410;28;20559;-68
2021/05/06 13:56:55;;;;;;;5.20;1.20;;;;;;;27.00;21.88;94873.88;5071830;28;20275;-67
2021/05/06 13:59:21;;;;;;;3.50;1.03;;;;;;;27.06;22.11;94884.31;5073163;28;20541;-68
2021/05/06 14:01:55;;;;;;;2.87;0.90;;;;;;;26.76;21.03;94868.84;5072589;28;20611;-68
2021/05/06 14:04:22;;;;;;;2.33;1.13;;;;;;;26.78;21.19;94874.66;5072956;28;20199;-64
2021/05/06 14:06:49;;;;;;;3.23;1.47;;;;;;;26.85;21.64;94882.03;5074047;28;20283;-66
2021/05/06 14:09:17;;;;;;;4.17;1.23;;;;;;;26.56;21.26;94875.38;5072877;28;20227;-68
2021/05/06 14:11:44;;;;;;;5.37;1.33;;;;;;;26.87;22.26;94880.56;5072860;28;20949;-66
2021/05/06 14:14:12;;;;;;;5.17;2.90;;;;;;;27.04;21.02;94880.06;5070265;28;20279;-71
2021/05/06 14:16:39;;;;;;;101.20;92.03;;;;;;;27.20;21.27;94876.47;5073150;28;20196;-67
2021/05/06 14:19:08;;;;;;;4.40;2.67;;;;;;;27.43;21.75;94863.78;5073234;28;20198;-66
2021/05/06 14:21:39;;;;;;;2.50;1.47;;;;;;;27.24;20.20;94877.31;5073311;28;20626;-67
2021/05/06 14:24:07;;;;;;;4.93;1.43;;;;;;;26.98;19.92;94868.06;5055294;28;20215;-68
2021/05/06 14:26:33;;;;;;;2.17;1.20;;;;;;;27.39;20.60;94873.75;5073473;28;20199;-66
2021/05/06 14:29:00;;;;;;;6.70;3.57;;;;;;;27.59;20.69;94875.94;5072960;28;20265;-67
2021/05/06 14:31:26;;;;;;;22.73;11.90;;;;;;;27.57;20.56;94877.47;5073327;28;20180;-66
2021/05/06 14:33:52;;;;;;;3.80;2.00;;;;;;;27.57;19.99;94869.41;5073687;28;20650;-66
2021/05/06 14:36:19;;;;;;;4.57;2.00;;;;;;;27.53;19.68;94874.72;5055565;28;20200;-64
2021/05/06 14:38:45;;;;;;;9.93;5.20;;;;;;;27.04;20.79;94869.31;5073477;28;20196;-67
2021/05/06 14:41:12;;;;;;;14.17;9.40;;;;;;;27.55;20.15;94863.59;5073534;28;20195;-66
2021/05/06 14:43:38;;;;;;;7.00;3.80;;;;;;;27.59;20.25;94845.59;5073012;28;20207;-64
2021/05/06 14:46:05;;;;;;;3.80;1.40;;;;;;;27.21;19.79;94851.91;5072926;28;20188;-65
2021/05/06 14:48:32;;;;;;;4.03;2.10;;;;;;;27.37;20.16;94851.78;5072839;28;20192;-65
2021/05/06 14:50:59;;;;;;;2.00;1.00;;;;;;;27.24;19.38;94853.88;5072950;28;20243;-63
2021/05/06 14:53:29;;;;;;;6.23;2.63;;;;;;;27.21;20.21;94862.66;5073050;28;20214;-65
2021/05/06 14:55:58;;;;;;;4.90;2.40;;;;;;;27.61;20.03;94859.47;5073165;28;20294;-69
2021/05/06 14:58:28;;;;;;;27.67;22.43;;;;;;;27.63;19.20;94851.75;5071015;28;20686;-63
2021/05/06 15:00:56;;;;;;;4.33;3.20;;;;;;;27.65;19.69;94850.28;5054873;28;20191;-68
2021/05/06 15:03:26;;;;;;;6.57;2.63;;;;;;;27.51;20.04;94850.09;5072816;28;20608;-64
2021/05/06 15:05:53;;;;;;;4.00;2.43;;;;;;;27.43;20.01;94853.00;5073035;28;20196;-65
2021/05/06 15:08:20;;;;;;;10.93;8.97;;;;;;;27.01;19.83;94850.44;5073325;28;20625;-67
2021/05/06 15:10:47;;;;;;;12.10;9.10;;;;;;;27.13;20.28;94854.84;5072309;28;20240;-65
2021/05/06 15:13:14;;;;;;;3.23;1.97;;;;;;;26.89;19.18;94856.78;5071907;28;20212;-65
2021/05/06 15:15:40;;;;;;;2.67;1.13;;;;;;;26.87;19.52;94860.97;5072714;28;20557;-66
2021/05/06 15:18:07;;;;;;;2.83;1.67;;;;;;;26.86;19.70;94854.03;5072696;28;20195;-65
2021/05/06 15:20:34;;;;;;;2.03;1.40;;;;;;;26.54;20.28;94847.28;5072664;28;20221;-63
2021/05/06 15:23:02;;;;;;;1.43;1.20;;;;;;;26.56;20.52;94845.81;5072410;28;20257;-66
2021/05/06 15:25:29;;;;;;;3.00;1.20;;;;;;;26.84;19.79;94843.63;5072173;28;20224;-64
2021/05/06 15:27:55;;;;;;;3.23;1.33;;;;;;;26.97;20.44;94842.31;5074096;28;20207;-66
2021/05/06 15:30:23;;;;;;;5.43;1.10;;;;;;;26.63;20.33;94842.44;5074276;28;20223;-66
2021/05/06 15:32:50;;;;;;;2.17;1.33;;;;;;;26.50;20.14;94849.91;5072655;28;20202;-64
2021/05/06 15:35:20;;;;;;;3.90;1.20;;;;;;;26.61;20.04;94850.88;5072136;28;20195;-64
2021/05/06 15:37:53;;;;;;;5.37;1.57;;;;;;;26.87;20.19;94848.28;5072224;28;20283;-65